sim
Sign-in with your pilot id or email,
or register
Callsign
Passwort

Schedule Details

Flight Number: RYR2175 (2)
Departure: Dortmund Airport (EDLW) at 17:10
Arrival: Thessaloniki International Airport (LGTS) at 19:55
Route: Ryanair Passenger Schedule. Enter filed route here before submitting Pirep.

Weather Information
Getting current METAR information for EDLW 252150Z AUTO 26006KT 230V310 9999 FEW046/// 12/08 Q1009
Getting current METAR information for LGTS 252150Z 00000KT CAVOK 15/12 Q1020 NOSIG

Schedule Frequency

Route Map